Time;durP1;ratioP1;P1;durP2;ratioP2;P2;SDS_P1;SDS_P2;PMS_P1;PMS_P2;Temp;Humidity;BMP_temperature;BMP_pressure;BME280_temperature;BME280_humidity;BME280_pressure;Samples;Min_cycle;Max_cycle;Signal;HPM_P1;HPM_P2
2021/12/24 00:01:18;;;;;;;22.90;13.68;;;;;;;7.36;71.71;100482.41;5001000;28;20065;-59
2021/12/24 00:03:47;;;;;;;20.65;12.82;;;;;;;7.37;71.19;100480.56;4999756;28;20077;-59
2021/12/24 00:06:16;;;;;;;18.45;12.48;;;;;;;7.37;71.62;100475.22;5001324;28;20069;-59
2021/12/24 00:08:46;;;;;;;21.42;12.88;;;;;;;7.38;72.07;100475.00;5019406;28;20167;-59
2021/12/24 00:11:15;;;;;;;22.27;12.07;;;;;;;7.39;71.53;100481.16;5063120;28;20067;-59
2021/12/24 00:13:47;;;;;;;18.17;11.40;;;;;;;7.42;71.96;100478.88;5075207;28;20055;-59
2021/12/24 00:16:21;;;;;;;21.60;12.35;;;;;;;7.42;71.54;100476.22;5070568;28;20135;-59
2021/12/24 00:18:54;;;;;;;20.88;12.13;;;;;;;7.42;71.21;100478.06;5073045;28;20049;-62
2021/12/24 00:35:35;;;;;;;14.00;10.07;;;;;;;7.46;72.52;100458.72;4949966;29;20059;-59
2021/12/24 00:38:07;;;;;;;16.30;11.57;;;;;;;7.46;72.41;100471.28;4943601;29;20051;-59
2021/12/24 00:40:37;;;;;;;15.85;10.88;;;;;;;7.47;71.80;100457.69;4942165;29;20075;-59
2021/12/24 00:43:05;;;;;;;14.13;10.27;;;;;;;7.46;72.09;100448.03;4936647;29;20052;-59
2021/12/24 00:45:35;;;;;;;15.75;10.77;;;;;;;7.47;71.98;100455.03;4942376;29;20080;-59
2021/12/24 00:48:05;;;;;;;15.95;10.68;;;;;;;7.48;72.88;100445.16;4942857;29;20065;-59
2021/12/24 00:50:47;;;;;;;14.80;10.52;;;;;;;7.49;72.14;100452.13;4950168;29;20051;-59
2021/12/24 00:55:58;;;;;;;14.73;9.20;;;;;;;7.50;72.53;100451.91;4941968;29;20541;-59
2021/12/24 00:58:26;;;;;;;13.13;9.85;;;;;;;7.52;72.89;100451.72;4957700;29;20047;-59
2021/12/24 01:00:53;;;;;;;13.15;9.45;;;;;;;7.53;72.88;100449.84;5017603;28;20053;-59
2021/12/24 01:03:21;;;;;;;14.23;8.77;;;;;;;7.54;72.62;100452.31;5037484;28;20048;-59
2021/12/24 01:05:50;;;;;;;13.57;9.73;;;;;;;7.54;72.20;100446.97;5069167;28;20486;-59
2021/12/24 01:08:19;;;;;;;13.82;9.75;;;;;;;7.55;73.30;100440.59;5063648;28;20052;-59
2021/12/24 01:10:51;;;;;;;14.02;9.77;;;;;;;7.55;72.39;100440.59;5063417;28;20048;-59
2021/12/24 01:13:19;;;;;;;15.50;10.68;;;;;;;7.51;72.25;100442.03;5073376;28;20087;-59
2021/12/24 01:15:55;;;;;;;15.98;10.13;;;;;;;7.55;72.68;100440.59;5072863;28;20102;-59
2021/12/24 01:18:33;;;;;;;17.08;10.18;;;;;;;7.56;72.60;100444.09;5076181;28;20108;-59
2021/12/24 01:21:14;;;;;;;17.13;10.23;;;;;;;7.56;71.93;100447.59;5072957;28;20116;-59
2021/12/24 01:23:49;;;;;;;16.70;10.68;;;;;;;7.48;72.42;100435.28;5067735;28;20112;-59
2021/12/24 01:26:22;;;;;;;14.10;9.10;;;;;;;7.58;72.52;100445.50;5067726;28;20069;-60
2021/12/24 01:29:19;;;;;;;15.85;10.38;;;;;;;7.57;72.62;100429.69;5066420;28;20041;-59
2021/12/24 01:40:21;;;;;;;14.55;9.98;;;;;;;7.60;72.28;100429.25;5061958;28;20045;-59
2021/12/24 01:42:49;;;;;;;16.25;10.20;;;;;;;7.60;72.41;100434.59;5063989;28;20079;-60
2021/12/24 01:45:20;;;;;;;18.35;11.88;;;;;;;7.60;72.41;100435.44;5065047;28;20068;-59
2021/12/24 01:47:49;;;;;;;15.55;9.90;;;;;;;7.62;72.09;100432.53;5068560;28;20078;-59
2021/12/24 01:50:18;;;;;;;18.83;11.32;;;;;;;7.62;72.42;100432.53;5071685;28;20063;-59
2021/12/24 01:52:49;;;;;;;16.02;10.48;;;;;;;7.61;72.70;100434.41;5067396;28;20086;-60
2021/12/24 01:55:19;;;;;;;16.35;10.98;;;;;;;7.63;73.08;100429.66;5063382;28;20051;-59
2021/12/24 01:57:47;;;;;;;18.58;10.98;;;;;;;7.64;72.73;100441.16;5051479;28;20044;-59
2021/12/24 02:00:19;;;;;;;16.17;11.55;;;;;;;7.64;72.38;100444.66;5061817;28;20498;-59
2021/12/24 02:02:47;;;;;;;22.33;11.57;;;;;;;7.64;72.89;100433.97;5075590;28;20076;-60
2021/12/24 02:05:16;;;;;;;13.85;10.43;;;;;;;7.66;72.95;100445.28;5078837;28;20120;-59
2021/12/24 02:07:43;;;;;;;16.35;11.38;;;;;;;7.68;72.57;100447.75;5073190;28;20071;-59
2021/12/24 02:10:14;;;;;;;22.02;12.25;;;;;;;7.68;72.72;100426.34;5067728;28;20083;-59
2021/12/24 02:12:43;;;;;;;15.90;10.77;;;;;;;7.69;73.19;100427.97;5071219;28;20079;-59
2021/12/24 02:15:22;;;;;;;14.45;10.60;;;;;;;7.69;73.00;100428.81;5084228;28;20059;-60
2021/12/24 02:18:18;;;;;;;18.98;11.68;;;;;;;7.67;73.30;100433.53;5076827;28;20072;-59
2021/12/24 02:29:06;;;;;;;14.75;11.15;;;;;;;7.71;72.81;100424.06;5068583;28;20041;-59
2021/12/24 02:31:34;;;;;;;16.75;10.38;;;;;;;7.73;73.37;100424.66;5076448;28;20079;-59
2021/12/24 02:34:02;;;;;;;16.83;10.27;;;;;;;7.74;73.44;100428.16;5069037;28;20106;-60
2021/12/24 02:36:31;;;;;;;17.40;11.75;;;;;;;7.75;73.46;100430.63;5075182;28;20065;-59
2021/12/24 02:38:59;;;;;;;15.70;11.02;;;;;;;7.75;73.20;100424.47;5070889;28;20076;-59
2021/12/24 02:41:27;;;;;;;18.45;10.80;;;;;;;7.76;73.40;100428.78;5083703;28;20048;-59
2021/12/24 02:43:55;;;;;;;18.42;11.60;;;;;;;7.76;73.33;100410.88;5075032;28;20069;-59
2021/12/24 02:46:30;;;;;;;17.75;11.50;;;;;;;7.78;73.70;100416.00;5067120;28;20119;-59
2021/12/24 02:49:10;;;;;;;17.35;12.27;;;;;;;7.77;73.74;100409.84;5061378;28;20076;-59
2021/12/24 02:54:25;;;;;;;19.25;11.65;;;;;;;7.80;74.08;100401.38;5067468;28;20108;-59
2021/12/24 02:56:58;;;;;;;15.98;12.15;;;;;;;7.82;73.98;100399.31;5072401;28;20060;-59
2021/12/24 02:59:28;;;;;;;19.38;11.55;;;;;;;7.84;73.30;100409.78;5072047;28;20162;-59
2021/12/24 03:01:58;;;;;;;20.98;12.77;;;;;;;7.82;73.65;100407.34;5065754;28;20088;-59
2021/12/24 03:04:26;;;;;;;18.02;11.68;;;;;;;7.82;73.92;100410.00;5065215;28;20490;-60
2021/12/24 03:06:56;;;;;;;22.55;12.80;;;;;;;7.83;74.46;100414.31;5068372;28;20474;-60
2021/12/24 03:09:23;;;;;;;21.40;13.82;;;;;;;7.83;73.62;100416.19;5067477;28;20064;-59
2021/12/24 03:11:52;;;;;;;22.38;13.95;;;;;;;7.84;74.76;100407.13;5080660;28;20146;-59
2021/12/24 03:14:21;;;;;;;17.27;11.88;;;;;;;7.82;74.18;100406.50;5078904;28;20608;-59
2021/12/24 03:16:55;;;;;;;22.23;13.48;;;;;;;7.84;74.48;100412.47;5072254;28;20061;-59
2021/12/24 03:19:26;;;;;;;22.42;12.98;;;;;;;7.86;74.56;100401.56;5068223;28;20072;-59
2021/12/24 03:21:58;;;;;;;22.02;12.85;;;;;;;7.86;73.72;100410.41;5070917;28;20068;-59
2021/12/24 03:24:36;;;;;;;23.10;14.93;;;;;;;7.88;74.94;100410.19;5062465;28;20080;-59
2021/12/24 03:27:07;;;;;;;22.38;13.30;;;;;;;7.88;73.94;100416.34;5063743;28;20041;-59
2021/12/24 03:29:35;;;;;;;22.48;13.60;;;;;;;7.88;74.61;100416.34;5072910;28;20099;-59
2021/12/24 03:32:04;;;;;;;22.30;13.80;;;;;;;7.89;74.67;100417.19;5062814;28;20049;-59
2021/12/24 03:34:32;;;;;;;23.88;13.30;;;;;;;7.90;74.66;100418.81;5069040;28;20045;-60
2021/12/24 03:37:00;;;;;;;29.60;14.93;;;;;;;7.90;74.72;100418.81;5067821;28;20444;-60
2021/12/24 03:39:29;;;;;;;28.98;15.18;;;;;;;7.91;74.29;100421.28;5064703;28;20076;-59
2021/12/24 03:41:58;;;;;;;25.67;13.70;;;;;;;7.92;74.60;100425.59;5072566;28;20055;-59
2021/12/24 03:44:32;;;;;;;24.20;15.05;;;;;;;7.93;74.75;100419.22;5069689;28;20036;-59
2021/12/24 03:47:05;;;;;;;29.27;15.32;;;;;;;7.92;74.18;100422.91;5074566;28;20471;-59
2021/12/24 03:49:37;;;;;;;22.85;14.25;;;;;;;7.92;74.39;100422.91;5073094;28;20178;-59
2021/12/24 03:52:19;;;;;;;26.80;15.70;;;;;;;7.92;74.45;100422.91;5072743;28;20045;-59
2021/12/24 03:54:56;;;;;;;26.10;15.18;;;;;;;7.94;74.46;100426.19;5067633;28;20182;-59
2021/12/24 03:57:25;;;;;;;24.58;14.82;;;;;;;7.95;74.54;100427.84;5071168;28;20044;-59
2021/12/24 03:59:54;;;;;;;31.27;16.48;;;;;;;7.95;74.42;100421.66;5070308;28;20064;-59
2021/12/24 04:02:22;;;;;;;30.63;15.52;;;;;;;7.95;75.52;100427.84;5072339;28;20151;-59
2021/12/24 04:04:50;;;;;;;23.90;15.10;;;;;;;7.96;74.73;100418.78;5068479;28;20542;-59
2021/12/24 04:07:19;;;;;;;28.75;17.83;;;;;;;7.97;75.31;100428.44;5072675;28;20389;-59
2021/12/24 04:09:55;;;;;;;28.15;15.23;;;;;;;7.98;74.84;100427.41;5076480;28;20056;-59
2021/12/24 04:12:24;;;;;;;33.03;17.55;;;;;;;7.99;75.67;100430.91;5084018;28;20479;-59
2021/12/24 04:14:53;;;;;;;29.15;16.58;;;;;;;7.97;75.21;100431.13;5080648;28;20402;-59
2021/12/24 04:17:21;;;;;;;24.92;15.98;;;;;;;8.01;75.52;100429.66;5076201;28;20178;-59
2021/12/24 04:25:20;;;;;;;36.58;18.15;;;;;;;8.01;75.69;100421.63;5066086;28;20072;-59
2021/12/24 04:27:51;;;;;;;31.00;17.75;;;;;;;8.05;75.22;100435.41;5075539;28;20052;-59
2021/12/24 04:30:24;;;;;;;30.92;17.75;;;;;;;8.05;75.69;100427.38;5064179;28;20084;-59
2021/12/24 04:32:59;;;;;;;29.88;17.02;;;;;;;8.05;75.15;100432.72;5067101;28;20073;-59
2021/12/24 04:35:44;;;;;;;35.33;19.13;;;;;;;8.03;74.93;100430.25;5065806;28;20136;-59
2021/12/24 04:38:36;;;;;;;32.92;18.92;;;;;;;8.07;75.92;100430.66;5071095;28;20083;-60
2021/12/24 04:52:17;;;;;;;33.17;18.00;;;;;;;8.08;74.96;100432.28;5069860;28;20052;-59
2021/12/24 05:03:06;;;;;;;36.17;20.05;;;;;;;8.09;75.32;100432.09;5068057;28;20048;-59
2021/12/24 05:05:43;;;;;;;34.05;19.40;;;;;;;8.12;75.07;100428.16;5067836;28;20072;-59
2021/12/24 05:08:20;;;;;;;26.90;17.90;;;;;;;8.11;75.70;100429.19;5068604;28;20075;-59
2021/12/24 05:10:49;;;;;;;30.20;17.70;;;;;;;8.11;75.91;100427.34;5075499;28;20431;-59
2021/12/24 05:13:20;;;;;;;27.70;18.05;;;;;;;8.10;74.70;100431.03;5075691;28;20114;-59
2021/12/24 05:15:53;;;;;;;34.13;18.85;;;;;;;8.13;75.02;100441.31;5071883;28;20055;-59
2021/12/24 05:18:34;;;;;;;28.73;17.63;;;;;;;8.13;74.90;100437.81;5082655;28;20045;-59
2021/12/24 05:23:47;;;;;;;29.23;16.75;;;;;;;8.13;74.91;100437.81;5074018;28;20068;-59
2021/12/24 05:26:14;;;;;;;25.45;16.40;;;;;;;8.13;75.76;100435.97;5070994;28;20040;-59
2021/12/24 05:28:43;;;;;;;26.52;15.43;;;;;;;8.14;75.70;100429.56;5058755;28;20627;-59
2021/12/24 05:31:15;;;;;;;28.55;17.15;;;;;;;8.15;75.11;100433.06;5064772;28;20049;-59
2021/12/24 05:33:43;;;;;;;25.40;16.42;;;;;;;8.16;75.21;100434.72;5077772;28;20504;-59
2021/12/24 05:36:11;;;;;;;36.45;18.90;;;;;;;8.15;75.68;100433.91;5063543;28;20041;-58
2021/12/24 05:38:39;;;;;;;30.17;16.80;;;;;;;8.15;75.65;100441.94;5065202;28;20061;-59
2021/12/24 05:41:06;;;;;;;27.92;16.08;;;;;;;8.16;76.01;100443.56;5068851;28;20099;-59
2021/12/24 05:43:34;;;;;;;28.30;16.30;;;;;;;8.18;75.87;100445.22;5069809;28;20090;-59
2021/12/24 05:46:02;;;;;;;25.20;17.23;;;;;;;8.19;75.65;100439.63;5077959;28;20076;-59
2021/12/24 05:48:31;;;;;;;28.55;16.67;;;;;;;8.19;75.18;100442.31;5061871;28;20060;-59
2021/12/24 05:50:59;;;;;;;25.25;16.45;;;;;;;8.20;75.63;100449.31;5069175;28;20478;-59
2021/12/24 05:53:28;;;;;;;27.45;15.70;;;;;;;8.21;75.84;100444.78;5062581;28;20478;-59
2021/12/24 05:55:55;;;;;;;23.60;15.73;;;;;;;8.21;76.88;100442.09;5068633;28;20052;-59
2021/12/24 05:58:24;;;;;;;27.95;16.00;;;;;;;8.19;75.56;100436.97;5071322;28;20084;-59
2021/12/24 06:00:52;;;;;;;27.80;15.80;;;;;;;8.20;76.05;100435.09;5065402;28;20084;-59
2021/12/24 06:03:21;;;;;;;27.00;16.92;;;;;;;8.17;76.10;100428.31;5064388;28;20364;-59
2021/12/24 06:05:50;;;;;;;30.50;16.80;;;;;;;8.38;75.57;100430.69;5062996;28;20075;-60
2021/12/24 06:08:17;;;;;;;26.92;15.27;;;;;;;8.54;75.94;100434.66;5066235;28;20052;-58
2021/12/24 06:10:45;;;;;;;23.25;14.68;;;;;;;8.70;74.61;100433.28;5066827;28;20122;-59
2021/12/24 06:13:13;;;;;;;23.33;14.63;;;;;;;8.85;73.85;100439.13;5061279;28;20080;-59
2021/12/24 06:15:45;;;;;;;24.30;13.77;;;;;;;9.02;73.84;100440.19;5067585;28;20187;-59
2021/12/24 06:18:24;;;;;;;34.47;14.45;;;;;;;9.14;73.66;100451.81;4359728;28;10000682;-59
2021/12/24 06:20:54;;;;;;;20.92;13.15;;;;;;;9.29;72.87;100447.94;5058743;28;20081;-58
2021/12/24 06:23:24;;;;;;;26.42;15.73;;;;;;;9.37;73.15;100453.84;5074324;28;20144;-59
2021/12/24 06:25:55;;;;;;;25.60;13.38;;;;;;;9.28;72.85;100435.59;5068644;28;20053;-57
2021/12/24 06:28:23;;;;;;;22.90;12.93;;;;;;;9.27;72.77;100452.72;5056071;28;20137;-59
2021/12/24 06:30:52;;;;;;;26.75;14.32;;;;;;;9.16;73.31;100446.22;5064061;28;20080;-58
2021/12/24 06:33:21;;;;;;;22.75;13.32;;;;;;;9.02;73.42;100439.38;5059808;28;20057;-58
2021/12/24 06:35:50;;;;;;;25.92;13.95;;;;;;;8.92;73.57;100450.59;5061269;28;20045;-58
2021/12/24 06:38:20;;;;;;;25.23;13.82;;;;;;;8.84;74.49;100448.19;5059197;28;20063;-58
2021/12/24 06:40:48;;;;;;;24.65;13.55;;;;;;;8.80;74.70;100441.63;5065720;28;20044;-59
2021/12/24 06:43:16;;;;;;;25.52;12.88;;;;;;;8.76;74.58;100443.09;5060198;28;20037;-60
2021/12/24 06:45:47;;;;;;;26.60;14.55;;;;;;;8.72;74.47;100447.25;5057713;28;20053;-59
2021/12/24 06:48:14;;;;;;;21.95;13.70;;;;;;;8.71;75.26;100448.31;5061778;28;20075;-59
2021/12/24 06:50:42;;;;;;;25.48;13.77;;;;;;;8.67;75.31;100452.47;5075213;28;20128;-59
2021/12/24 06:53:10;;;;;;;35.03;15.00;;;;;;;8.64;75.09;100445.72;5066846;28;20084;-62
2021/12/24 06:55:39;;;;;;;21.52;13.68;;;;;;;8.61;74.73;100456.88;5069150;28;20087;-60
2021/12/24 06:58:08;;;;;;;26.08;13.40;;;;;;;8.61;75.26;100464.09;5062758;28;20232;-60
2021/12/24 07:00:36;;;;;;;24.85;14.05;;;;;;;8.59;75.57;100463.47;5058040;28;20148;-59
2021/12/24 07:03:04;;;;;;;22.15;13.40;;;;;;;8.57;75.79;100452.16;5062889;28;20156;-61
2021/12/24 07:05:31;;;;;;;22.58;13.15;;;;;;;8.58;75.88;100448.44;5068550;28;20467;-58
2021/12/24 07:07:59;;;;;;;22.42;12.50;;;;;;;8.73;75.73;100447.06;5067828;28;20041;-59
2021/12/24 07:10:27;;;;;;;30.50;13.15;;;;;;;8.90;74.58;100441.13;5070044;28;20072;-59
2021/12/24 07:12:56;;;;;;;20.27;11.30;;;;;;;9.09;73.05;100437.44;5061440;28;20057;-59
2021/12/24 07:15:24;;;;;;;22.63;12.05;;;;;;;9.23;72.70;100444.28;5062155;28;20495;-59
2021/12/24 07:17:52;;;;;;;21.10;11.40;;;;;;;9.39;72.54;100448.25;5064736;28;20052;-60
2021/12/24 07:20:21;;;;;;;23.20;12.50;;;;;;;9.54;72.03;100445.19;5061896;28;20073;-60
2021/12/24 07:22:49;;;;;;;20.95;11.35;;;;;;;9.65;71.13;100445.25;5062895;28;20053;-59
2021/12/24 07:25:16;;;;;;;21.42;12.75;;;;;;;9.79;71.25;100448.59;5071271;28;20051;-60
2021/12/24 07:27:44;;;;;;;28.65;12.20;;;;;;;9.92;70.18;100444.91;5066115;28;20045;-61
2021/12/24 07:30:14;;;;;;;17.58;11.35;;;;;;;10.02;70.35;100442.50;5067275;28;20126;-59
2021/12/24 07:32:42;;;;;;;15.18;11.20;;;;;;;10.09;69.52;100436.00;5068173;28;20087;-60
2021/12/24 07:35:11;;;;;;;22.13;11.95;;;;;;;10.09;70.29;100436.00;5065826;28;20053;-60
2021/12/24 07:37:39;;;;;;;31.10;13.45;;;;;;;10.02;70.83;100440.63;5063679;28;20045;-60
2021/12/24 07:40:08;;;;;;;24.42;14.02;;;;;;;9.90;70.97;100447.00;5074925;28;20486;-63
2021/12/24 07:42:37;;;;;;;25.33;13.82;;;;;;;9.74;71.18;100446.59;5054197;28;20053;-60
2021/12/24 07:45:07;;;;;;;22.02;14.90;;;;;;;9.58;72.00;100452.56;5057413;28;20103;-60
2021/12/24 07:47:40;;;;;;;31.65;14.60;;;;;;;9.44;72.75;100451.91;5060745;28;20041;-61
2021/12/24 07:51:56;;;;;;;31.55;15.40;;;;;;;9.38;73.43;100450.13;5060631;28;20045;-61
2021/12/24 07:53:05;;;;;;;29.85;14.05;;;;;;;9.29;73.66;100461.34;5062650;28;20095;-61
2021/12/24 07:55:34;;;;;;;26.88;14.82;;;;;;;9.19;73.50;100453.00;5063450;28;20853;-60
2021/12/24 07:58:02;;;;;;;24.83;13.07;;;;;;;9.16;74.27;100453.44;5062133;28;20371;-61
2021/12/24 08:00:32;;;;;;;26.40;14.85;;;;;;;9.11;73.76;100465.66;5058302;28;20399;-60
2021/12/24 08:03:02;;;;;;;27.65;15.93;;;;;;;9.08;73.95;100454.56;5064678;28;20054;-60
2021/12/24 08:05:32;;;;;;;32.92;15.18;;;;;;;9.03;73.72;100455.22;5062275;28;20055;-59
2021/12/24 08:08:00;;;;;;;28.90;15.55;;;;;;;9.00;74.68;100450.31;5076672;28;20141;-59
2021/12/24 08:10:30;;;;;;;29.98;15.48;;;;;;;8.97;75.27;100456.09;5069845;28;20072;-59
2021/12/24 08:12:58;;;;;;;24.70;15.27;;;;;;;8.92;74.54;100442.56;5068297;28;20057;-59
2021/12/24 08:15:26;;;;;;;29.77;16.35;;;;;;;8.86;75.71;100440.75;5072091;28;20081;-59
2021/12/24 08:17:53;;;;;;;27.85;16.27;;;;;;;8.87;75.96;100455.78;5072858;28;20052;-59
2021/12/24 08:20:24;;;;;;;31.33;16.70;;;;;;;8.85;75.58;100457.06;5065630;28;20047;-59
2021/12/24 08:22:53;;;;;;;34.42;17.23;;;;;;;8.83;74.54;100459.94;5067836;28;20106;-58
2021/12/24 08:25:22;;;;;;;36.22;18.30;;;;;;;8.82;75.37;100458.31;5064998;28;20045;-59
2021/12/24 08:27:50;;;;;;;30.40;16.20;;;;;;;8.81;75.05;100462.03;5064400;28;20068;-59
2021/12/24 08:30:18;;;;;;;25.75;16.40;;;;;;;8.80;74.82;100461.22;5066274;28;20480;-59
2021/12/24 08:32:46;;;;;;;28.85;17.15;;;;;;;8.89;74.88;100451.03;5061986;28;20077;-59
2021/12/24 08:35:16;;;;;;;27.75;16.20;;;;;;;9.03;74.65;100457.91;5064822;28;20049;-59
2021/12/24 08:37:45;;;;;;;32.53;16.77;;;;;;;9.20;73.67;100452.78;5071233;28;20064;-58
2021/12/24 08:40:14;;;;;;;24.55;16.15;;;;;;;9.34;73.75;100448.91;5076032;28;20077;-59
2021/12/24 08:42:42;;;;;;;32.45;16.70;;;;;;;9.51;72.53;100442.97;5068563;28;20042;-59
2021/12/24 08:45:10;;;;;;;30.30;16.17;;;;;;;9.53;73.10;100443.56;5070778;28;20052;-60
2021/12/24 08:47:39;;;;;;;33.80;16.38;;;;;;;9.52;72.64;100440.06;5059889;28;20059;-59
2021/12/24 08:50:10;;;;;;;29.92;16.77;;;;;;;9.45;72.49;100440.13;5063357;28;20076;-60
2021/12/24 08:52:38;;;;;;;33.15;16.15;;;;;;;9.41;72.85;100436.25;5061325;28;20045;-59
2021/12/24 08:55:09;;;;;;;24.98;15.07;;;;;;;9.38;72.65;100442.06;5059817;28;20060;-59
2021/12/24 08:57:37;;;;;;;36.45;16.23;;;;;;;9.43;73.68;100439.53;5066143;28;20049;-59
2021/12/24 09:00:08;;;;;;;31.20;16.65;;;;;;;9.54;73.23;100437.97;5067235;28;20048;-60
2021/12/24 09:02:36;;;;;;;29.77;14.55;;;;;;;9.68;72.59;100430.56;5064786;28;20091;-59
2021/12/24 09:05:05;;;;;;;31.30;15.48;;;;;;;9.83;72.42;100430.16;5068039;28;20052;-60
2021/12/24 09:07:33;;;;;;;33.35;15.95;;;;;;;9.99;71.69;100434.91;4710840;28;10000165;-59
2021/12/24 09:10:01;;;;;;;27.40;14.65;;;;;;;10.07;71.02;100429.22;5064883;28;20068;-62
2021/12/24 09:12:30;;;;;;;27.83;14.52;;;;;;;10.04;70.98;100429.66;5057543;28;20085;-59
2021/12/24 09:14:58;;;;;;;32.13;14.73;;;;;;;9.95;71.77;100425.66;5062939;28;20132;-60
2021/12/24 09:17:27;;;;;;;28.20;14.48;;;;;;;9.83;71.85;100422.94;5060512;28;20068;-60
2021/12/24 09:19:56;;;;;;;26.30;14.00;;;;;;;9.68;72.38;100417.97;5064044;28;20052;-60
2021/12/24 09:22:30;;;;;;;33.88;15.77;;;;;;;9.58;72.99;100424.91;5073660;28;20088;-59
2021/12/24 09:24:57;;;;;;;26.80;14.15;;;;;;;9.50;73.30;100426.03;5062817;28;20065;-59
2021/12/24 09:27:25;;;;;;;33.22;15.00;;;;;;;9.44;73.11;100425.06;5058301;28;20087;-59
2021/12/24 09:29:54;;;;;;;33.75;15.82;;;;;;;9.41;73.38;100425.53;5067105;28;20533;-60
2021/12/24 09:32:23;;;;;;;30.77;14.93;;;;;;;9.36;73.49;100430.75;5061053;28;20095;-59
2021/12/24 09:34:51;;;;;;;33.65;15.20;;;;;;;9.34;73.86;100432.00;5059510;28;20057;-60
2021/12/24 09:37:18;;;;;;;29.15;16.27;;;;;;;9.31;73.88;100432.47;5057296;28;20084;-60
2021/12/24 09:39:46;;;;;;;29.98;16.10;;;;;;;9.28;73.81;100432.91;5065227;28;20359;-60
2021/12/24 09:42:14;;;;;;;28.33;14.82;;;;;;;9.26;73.41;100435.81;5055147;28;20056;-60
2021/12/24 09:44:42;;;;;;;26.33;14.20;;;;;;;9.22;73.54;100429.25;5063694;28;20541;-59
2021/12/24 09:47:11;;;;;;;34.88;16.10;;;;;;;9.21;74.45;100429.47;5057902;28;20045;-59
2021/12/24 09:49:39;;;;;;;33.13;16.98;;;;;;;9.18;75.19;100429.91;5057936;28;20040;-59
2021/12/24 09:52:07;;;;;;;31.73;17.02;;;;;;;9.16;73.93;100424.78;5062176;28;20080;-60
2021/12/24 09:54:35;;;;;;;33.20;15.75;;;;;;;9.14;75.17;100422.31;5062550;28;20094;-60
2021/12/24 09:57:02;;;;;;;40.85;17.13;;;;;;;9.11;75.25;100425.44;5063208;28;20581;-60
2021/12/24 09:59:30;;;;;;;34.70;17.02;;;;;;;9.09;74.59;100427.53;5062686;28;20083;-59
2021/12/24 10:02:00;;;;;;;33.88;17.10;;;;;;;9.10;75.52;100423.81;5065539;28;20521;-59
2021/12/24 10:04:31;;;;;;;36.67;16.15;;;;;;;9.09;74.80;100421.34;5064571;28;20076;-59
2021/12/24 10:07:04;;;;;;;34.45;17.00;;;;;;;9.07;75.12;100418.91;5062351;28;20095;-59
2021/12/24 10:09:36;;;;;;;28.60;16.15;;;;;;;9.07;75.05;100424.25;5062194;28;20080;-60
2021/12/24 10:12:06;;;;;;;36.25;19.27;;;;;;;9.06;75.21;100424.47;5057505;28;20076;-60
2021/12/24 10:14:39;;;;;;;37.47;19.30;;;;;;;9.06;75.39;100427.16;5067032;28;20071;-60
2021/12/24 10:17:14;;;;;;;40.75;17.83;;;;;;;9.05;76.32;100430.88;5071385;28;20056;-60
2021/12/24 10:19:49;;;;;;;35.65;19.60;;;;;;;9.03;75.78;100423.06;5058863;28;20063;-60
2021/12/24 10:22:17;;;;;;;31.48;19.48;;;;;;;9.03;75.61;100431.09;5066174;28;20049;-59
2021/12/24 10:24:59;;;;;;;32.83;19.27;;;;;;;9.10;75.65;100431.84;5067901;28;20084;-60
2021/12/24 10:27:28;;;;;;;42.22;18.65;;;;;;;9.25;75.23;100423.44;5060439;28;20049;-60
2021/12/24 10:29:56;;;;;;;40.60;19.05;;;;;;;9.43;74.50;100425.31;5064869;28;20557;-61
2021/12/24 10:32:24;;;;;;;31.67;18.48;;;;;;;9.59;73.77;100429.25;5071122;28;20119;-60
2021/12/24 10:34:53;;;;;;;38.90;17.77;;;;;;;9.76;73.29;100419.53;5065129;28;20113;-60
2021/12/24 10:37:23;;;;;;;39.80;17.70;;;;;;;9.95;72.16;100425.66;5067156;28;20084;-59
2021/12/24 10:39:54;;;;;;;32.30;17.48;;;;;;;10.07;71.79;100419.28;5062905;28;20071;-59
2021/12/24 10:42:27;;;;;;;35.05;17.27;;;;;;;10.23;71.14;100420.53;5056450;28;20069;-60
2021/12/24 10:44:56;;;;;;;32.10;17.67;;;;;;;10.35;70.81;100418.69;5066660;28;20052;-60
2021/12/24 10:47:26;;;;;;;37.38;18.42;;;;;;;10.50;70.71;100417.41;5062026;28;20048;-61
2021/12/24 10:50:12;;;;;;;46.03;17.85;;;;;;;10.58;70.12;100409.00;5075884;28;20194;-60
2021/12/24 10:53:11;;;;;;;34.40;17.35;;;;;;;10.67;69.50;100405.72;5065538;28;20433;-60
2021/12/24 10:55:47;;;;;;;36.35;18.08;;;;;;;10.75;69.01;100408.06;5064589;28;20048;-59
2021/12/24 10:58:17;;;;;;;41.70;18.48;;;;;;;10.76;69.43;100408.88;5074119;28;20106;-60
2021/12/24 11:00:48;;;;;;;35.50;18.60;;;;;;;10.64;69.60;100400.81;5066186;28;20091;-59
2021/12/24 11:03:21;;;;;;;36.70;17.95;;;;;;;10.51;69.87;100398.34;5061254;28;20052;-59
2021/12/24 11:05:53;;;;;;;37.67;18.50;;;;;;;10.35;70.39;100407.13;5067977;28;20071;-62
2021/12/24 11:08:23;;;;;;;46.33;19.25;;;;;;;10.20;71.79;100404.06;5065864;28;20079;-60
2021/12/24 11:10:54;;;;;;;40.42;18.48;;;;;;;10.09;71.17;100405.63;5064890;28;20055;-60
2021/12/24 11:13:28;;;;;;;39.83;18.45;;;;;;;10.01;71.95;100408.66;5073596;28;20088;-60
2021/12/24 11:15:58;;;;;;;37.80;17.38;;;;;;;9.94;72.51;100405.25;5052611;28;20136;-59
2021/12/24 11:18:29;;;;;;;37.80;18.15;;;;;;;9.82;73.09;100399.00;5065436;28;20041;-59
2021/12/24 11:21:00;;;;;;;31.80;18.67;;;;;;;9.81;72.86;100402.75;5071347;28;20071;-59
2021/12/24 11:23:29;;;;;;;36.90;18.75;;;;;;;9.76;72.89;100398.88;5067787;28;20063;-60
2021/12/24 11:25:59;;;;;;;36.70;20.48;;;;;;;9.72;73.75;100399.56;5067451;28;20048;-60
2021/12/24 11:28:28;;;;;;;43.45;20.23;;;;;;;9.67;73.75;100405.59;5070407;28;20059;-60
2021/12/24 11:30:57;;;;;;;35.25;20.08;;;;;;;9.62;73.88;100400.09;5065081;28;20044;-59
2021/12/24 11:33:28;;;;;;;36.20;19.27;;;;;;;9.59;74.28;100400.53;5061847;28;20061;-60
2021/12/24 11:36:00;;;;;;;32.67;19.92;;;;;;;9.57;74.05;100402.63;5070043;28;20044;-60
2021/12/24 11:38:32;;;;;;;35.75;20.65;;;;;;;9.55;74.15;100398.53;5072501;28;20068;-61
2021/12/24 11:41:02;;;;;;;37.28;19.48;;;;;;;9.53;74.56;100406.00;5059865;28;20041;-62
2021/12/24 11:43:31;;;;;;;37.63;20.38;;;;;;;9.52;73.58;100407.84;5065511;28;20056;-61
2021/12/24 11:46:02;;;;;;;33.78;18.83;;;;;;;9.49;73.95;100405.63;5066824;28;20083;-61
2021/12/24 11:48:32;;;;;;;40.55;20.67;;;;;;;9.48;74.19;100406.66;5075005;28;20068;-61
2021/12/24 11:51:05;;;;;;;32.67;18.75;;;;;;;9.48;74.01;100405.84;5060825;28;20079;-61
2021/12/24 11:53:33;;;;;;;40.30;20.35;;;;;;;9.46;75.07;100408.75;4712945;28;9999769;-62
2021/12/24 11:56:06;;;;;;;36.33;18.73;;;;;;;9.45;73.90;100401.75;5059216;28;20168;-61
2021/12/24 11:58:43;;;;;;;41.20;20.42;;;;;;;9.46;74.40;100403.41;5063546;28;20064;-63
2021/12/24 12:01:11;;;;;;;43.38;19.33;;;;;;;9.49;74.34;100399.44;5058739;28;20090;-62
2021/12/24 12:03:42;;;;;;;34.92;19.00;;;;;;;9.60;73.72;100404.88;5061843;28;20056;-62
2021/12/24 12:06:32;;;;;;;29.80;17.40;;;;;;;9.77;73.28;100397.00;5057959;28;20135;-61
2021/12/24 12:09:01;;;;;;;33.20;17.75;;;;;;;9.92;72.23;100388.53;5052048;28;20069;-61
2021/12/24 12:11:30;;;;;;;37.88;17.50;;;;;;;10.11;71.72;100382.06;5065148;28;20109;-61
2021/12/24 12:14:01;;;;;;;35.58;17.45;;;;;;;10.30;70.99;100380.13;5068928;28;20523;-61
2021/12/24 12:16:48;;;;;;;33.63;17.30;;;;;;;10.46;70.78;100379.44;5055794;28;20131;-62
2021/12/24 12:19:23;;;;;;;31.33;17.03;;;;;;;10.59;70.14;100389.13;5068859;28;20059;-62
2021/12/24 12:22:17;;;;;;;31.80;16.83;;;;;;;10.61;70.59;100379.78;5052129;28;20045;-62
2021/12/24 12:27:34;;;;;;;;;;;;;;;10.38;71.46;100394.06;5063846;28;20186;-61
2021/12/24 12:30:28;;;;;;;32.60;17.38;;;;;;;10.24;71.87;100392.63;5062924;28;19960;-62
2021/12/24 12:33:06;;;;;;;35.25;17.13;;;;;;;10.11;71.95;100398.16;5064379;28;20182;-61
2021/12/24 12:35:36;;;;;;;29.42;16.95;;;;;;;10.05;72.34;100393.72;5068162;28;20127;-61
2021/12/24 12:38:23;;;;;;;31.20;15.63;;;;;;;10.00;73.04;100383.66;5065198;28;20496;-62
2021/12/24 12:40:51;;;;;;;;;;;;;;;9.95;73.46;100393.44;5064818;28;20067;-61